Current Weather Conditions from Arkansas, Oklahoma, Missouri & Kansas

As well as selected U.S. cities associated with XNA Flights


KVBT - Bentonville Arkansas, Airport
Updated: Fri, Jan-Fri-2020 12:56pm
Overcast
Overcast
 Wind from W
Wind: W 12 mph , 19 km/h
Temperature: 32°F , 0°C
Wind Chill: 23°F , -5°C
Dew Point: 30°F , -1°C
Humidity: 93%
Barometer: 30.04 inHg , 1017.3 hPa
Clouds: Overcast
Visibility: 9 miles , 14 km
Cloud details: Overcast 800 ft
2020/01/24 18:56 KVBT 241856Z AUTO 28010KT 9SM OVC008 00/M01 A3004 RMK AO2 SLP186 T00001006 FZRANO TSNO
KROG - Rogers Arkansas, Airport
Updated: Fri, Jan-Fri-2020 12:58pm
Overcast
Overcast
 Wind from WNW
Wind: WNW 13 mph , 20 km/h
Temperature: 32°F , 0°C
Wind Chill: 22°F , -6°C
Dew Point: 30°F , -1°C
Humidity: 93%
Barometer: 30.02 inHg , 1016.6 hPa
Clouds: Overcast
Visibility: 9 miles , 14 km
Cloud details: Overcast 800 ft
2020/01/24 18:58 KROG 241858Z 30011KT 9SM OVC008 00/M01 A3002 RMK AO2 SLP174 T00001006
KXNA - Northwest Arkansas Regional Airport
Updated: Fri, Jan-Fri-2020 12:53pm
Overcast
Overcast
 Wind from WNW
Wind: WNW 13 mph , 20 km/h, Gust: 22 mph , 35 km/h
Temperature: 32°F , 0°C
Wind Chill: 22°F , -6°C
Dew Point: 28°F , -2°C
Humidity: 87%
Barometer: 30.03 inHg , 1016.9 hPa
Clouds: Overcast
Visibility: 10 miles , 16 km
Cloud details: Overcast 900 ft
2020/01/24 18:53 KXNA 241853Z 29011G19KT 10SM OVC009 00/M02 A3003 RMK AO2 SLP178 T00001017
 
KSLG - Siloam Spring Arkansas, Airport
Updated: Fri, Jan-Fri-2020 12:56pm
Overcast
Overcast
 Wind from WNW
Wind: WNW 16 mph , 26 km/h, Gust: 20 mph , 31 km/h
Temperature: 34°F , 1°C
Wind Chill: 24°F , -4°C
Dew Point: 30°F , -1°C
Humidity: 87%
Barometer: 30.05 inHg , 1017.6 hPa
Clouds: Overcast
Visibility: 10 miles , 16 km
Cloud details: Overcast 1000 ft
2020/01/24 18:56 KSLG 241856Z AUTO 30014G17KT 10SM OVC010 01/M01 A3005 RMK AO2 SLP183 T00111011 FZRANO TSNO
KASG - Springdale, Arkansas, Airport
Updated: Fri, Jan-Fri-2020 12:48pm
Overcast
Overcast
 Wind from W
Wind: W 13 mph , 20 km/h, Gust: 23 mph , 37 km/h
Temperature: 32°F , 0°C
Wind Chill: 22°F , -6°C
Dew Point: 32°F , 0°C
Humidity: 100%
Barometer: 30.03 inHg , 1016.9 hPa
Clouds: Overcast
Visibility: 8 miles , 13 km
Cloud details: Overcast 800 ft
2020/01/24 18:48 KASG 241848Z 28011G20KT 8SM OVC008 00/00 A3003
KFYV - Fayetteville Arkansas, Airport
Updated: Fri, Jan-Fri-2020 12:53pm
Overcast
Overcast
 Wind from W
Wind: W 10 mph , 17 km/h
Temperature: 36°F , 2°C
Wind Chill: 29°F , -2°C
Dew Point: 30°F , -1°C
Humidity: 81%
Barometer: 30.04 inHg , 1017.3 hPa
Clouds: Overcast
Visibility: 10 miles , 16 km
Cloud details: Overcast 1100 ft
2020/01/24 18:53 KFYV 241853Z 27009KT 10SM OVC011 02/M01 A3004 RMK AO2 SLP178 T00171006
 
KHRO - Harrison, Arkansas
Updated: Fri, Jan-Fri-2020 12:53pm
Overcast
Overcast
 Wind from WNW
Wind: WNW 8 mph , 13 km/h
Temperature: 32°F , 0°C
Wind Chill: 25°F , -4°C
Dew Point: 28°F , -2°C
Humidity: 87%
Barometer: 29.97 inHg , 1014.9 hPa
Clouds: Overcast
Visibility: 8 miles , 13 km
Cloud details: Overcast 700 ft
2020/01/24 18:53 KHRO 241853Z AUTO 29007KT 8SM OVC007 00/M02 A2997 RMK AO2 SLP157 T00001017
KFLP - Flippin, Arkansas
Updated: Fri, Jan-Fri-2020 12:56pm
Overcast
Overcast
 Wind from W
Wind: W 18 mph , 30 km/h, Gust: 25 mph , 41 km/h
Temperature: 36°F , 2°C
Wind Chill: 26°F , -3°C
Dew Point: 30°F , -1°C
Humidity: 81%
Barometer: 29.98 inHg , 1015.2 hPa
Clouds: Overcast
Visibility: 10 miles , 16 km
Cloud details: Overcast 2000 ft
2020/01/24 18:56 KFLP 241856Z AUTO 27016G22KT 10SM OVC020 02/M01 A2998 RMK AO2 SLP157 P0001 T00221006 FZRANO
KBPK - Mountain Home, Arkansas
Updated: Fri, Jan-Fri-2020 11:53am
NOT Current
Overcast
Overcast
 Wind from NW
Wind: NW 9 mph , 15 km/h, Gust: 21 mph , 33 km/h
Temperature: 36°F , 2°C
Wind Chill: 29°F , -2°C
Dew Point: 32°F , 0°C
Humidity: 87%
Barometer: 29.95 inHg , 1014.2 hPa
Clouds: Overcast
Visibility: 10 miles , 16 km
Cloud details: Mostly cloudy 1800 ft
Overcast 2200 ft
2020/01/24 17:53 KBPK 241753Z AUTO 32008G18KT 290V010 10SM BKN018 OVC022 02/00 A2995 RMK AO2 UPE02B20E21RAB02E38 SLP147 P0000 60000 T00220000 10022 20011 50003
 
KCCA - Clinton, Arkansas
Updated: Fri, Jan-Fri-2020 1:15pm
Overcast
Overcast
 Wind from W
Wind: W 13 mph , 20 km/h
Temperature: 41°F , 5°C
Wind Chill: 34°F , 1°C
Dew Point: 30°F , -1°C
Humidity: 66%
Barometer: 30.00 inHg , 1015.9 hPa
Clouds: Overcast
Visibility: 10 miles , 16 km
Cloud details: Overcast 2900 ft
2020/01/24 19:15 KCCA 241915Z AUTO 27011KT 10SM OVC029 05/M01 A3000 RMK AO2
KRUE - Russellville, Arkansas
Updated: Fri, Jan-Fri-2020 12:53pm
Overcast
Overcast
 Wind from W
Wind: W 12 mph , 19 km/h, Gust: 22 mph , 35 km/h
Temperature: 39°F , 4°C
Wind Chill: 32°F , 0°C
Dew Point: 30°F , -1°C
Humidity: 70%
Barometer: 30.04 inHg , 1017.3 hPa
Clouds: Overcast
Visibility: 10 miles , 16 km
Cloud details: Overcast 1900 ft
2020/01/24 18:53 KRUE 241853Z AUTO 27010G19KT 10SM OVC019 04/M01 A3004 RMK AO2 SLP170 T00391006
KBVX - Batesville, Arkansa
Updated: Fri, Jan-Fri-2020 12:56pm
Overcast
Overcast
 Wind from W
Wind: W 15 mph , 24 km/h, Gust: 22 mph , 35 km/h
Barometer: 29.97 inHg , 1014.9 hPa
Clouds: Overcast
Visibility: 10 miles , 16 km
Cloud details: Overcast 3300 ft
2020/01/24 18:56 KBVX 241856Z AUTO 28013G19KT 10SM OVC033 A2997 RMK AO2 SLPNO FZRANO $
 
KBYH - Blytheville, Arkansas
Updated: Fri, Jan-Fri-2020 11:55am
NOT Current
Overcast
Overcast
 Wind from W
Wind: W 13 mph , 20 km/h, Gust: 23 mph , 37 km/h
Temperature: 43°F , 6°C
Wind Chill: 36°F , 2°C
Dew Point: 34°F , 1°C
Humidity: 71%
Barometer: 29.92 inHg , 1013.2 hPa
Clouds: Overcast
Visibility: 10 miles , 16 km
Cloud details: Mostly cloudy 2100 ft
Overcast 3200 ft
2020/01/24 17:55 KBYH 241755Z 27011G20KT 10SM BKN021 OVC032 06/01 A2992
KM19 - Newport, Arkansas
Updated: Fri, Jan-Fri-2020 1:05pm
Overcast
Overcast
 Wind from W
Wind: W 17 mph , 28 km/h
Temperature: 43°F , 6°C
Wind Chill: 35°F , 2°C
Dew Point: 34°F , 1°C
Humidity: 71%
Barometer: 29.97 inHg , 1014.9 hPa
Clouds: Overcast
Visibility: 10 miles , 16 km
Cloud details: Mostly cloudy 3000 ft
Overcast 3700 ft
2020/01/24 19:05 KM19 241905Z AUTO 28015KT 10SM BKN030 OVC037 06/01 A2997 RMK AO2
KSRC - Searcy, Arkansas
Updated: Fri, Jan-Fri-2020 1:03pm
Overcast
Overcast
 Wind from W
Wind: W 15 mph , 24 km/h, Gust: 23 mph , 37 km/h
Temperature: 45°F , 7°C
Wind Chill: 38°F , 3°C
Dew Point: 36°F , 2°C
Humidity: 71%
Barometer: 30.00 inHg , 1015.9 hPa
Clouds: Overcast
Visibility: 10 miles , 16 km
Cloud details: Mostly cloudy 2300 ft
Overcast 3100 ft
2020/01/24 19:03 KSRC 241903Z AUTO 26013G20KT 10SM BKN023 OVC031 07/02 A3000 RMK AO2
 
KARG - Walnut Ridge, Arkansas
Updated: Fri, Jan-Fri-2020 1:18pm
Overcast
Overcast
 Wind from W
Wind: W 17 mph , 28 km/h
Temperature: 41°F , 5°C
Wind Chill: 33°F , 1°C
Dew Point: 34°F , 1°C
Humidity: 76%
Barometer: 29.93 inHg , 1013.5 hPa
Clouds: Overcast
Visibility: 10 miles , 16 km
Cloud details: Mostly cloudy 2700 ft
Overcast 3600 ft
2020/01/24 19:18 KARG 241918Z AUTO 28015KT 10SM BKN027 OVC036 05/01 A2993 RMK AO2 RAE05 P0000
KJBR - Jonesboro, Arkansas
Updated: Fri, Jan-Fri-2020 12:53pm
Overcast
Overcast
 Wind from W
Wind: W 15 mph , 24 km/h, Gust: 24 mph , 39 km/h
Temperature: 41°F , 5°C
Wind Chill: 33°F , 1°C
Dew Point: 34°F , 1°C
Humidity: 76%
Barometer: 29.94 inHg , 1013.9 hPa
Clouds: Overcast
Visibility: 10 miles , 16 km
Cloud details: Few Clouds 2200 ft
Mostly cloudy 3000 ft
Overcast 3400 ft
2020/01/24 18:53 KJBR 241853Z AUTO 28013G21KT 10SM FEW022 BKN030 OVC034 05/01 A2994 RMK AO2 SLP140 T00500006
K4M9 - Corning, Arkansas
Updated: Fri, Jan-Fri-2020 1:15pm
Partly cloudy
Partly cloudy
 Wind from W
Wind: W 17 mph , 28 km/h
Temperature: 41°F , 5°C
Wind Chill: 33°F , 1°C
Dew Point: 37°F , 3°C
Humidity: 87%
Barometer: 29.92 inHg , 1013.2 hPa
Clouds: Partly cloudy
Visibility: 10 miles , 16 km
Cloud details: Partly cloudy 2000 ft
Partly cloudy 2700 ft
Partly cloudy 3200 ft
2020/01/24 19:15 K4M9 241915Z AUTO 27015KT 10SM SCT020 SCT027 SCT032 05/03 A2992 RMK AO2 PWINO
 
KLRF - Little Rock Afb, Arkansas
Updated: Fri, Jan-Fri-2020 11:56am
NOT Current
Overcast
Overcast
 Wind from WNW
Wind: WNW 15 mph , 24 km/h, Gust: 20 mph , 31 km/h
Temperature: 43°F , 6°C
Wind Chill: 36°F , 2°C
Dew Point: 34°F , 1°C
Humidity: 71%
Barometer: 30.01 inHg , 1016.3 hPa
Clouds: Overcast
Visibility: 10 miles , 16 km
Cloud details: Mostly cloudy 2400 ft
Overcast 3300 ft
2020/01/24 17:56 KLRF 241756Z AUTO 29013G17KT 10SM BKN024 OVC033 06/01 A3001 RMK AO2 BKN V OVC SLP167 T00590008 10065 20033 50012
KLIT - Little Rock, Arkansas
Updated: Fri, Jan-Fri-2020 12:53pm
Overcast
Overcast
 Wind from WNW
Wind: WNW 21 mph , 33 km/h
Temperature: 43°F , 6°C
Wind Chill: 34°F , 1°C
Dew Point: 30°F , -1°C
Humidity: 61%
Barometer: 30.03 inHg , 1016.9 hPa
Clouds: Overcast
Visibility: 10 miles , 16 km
Cloud details: Overcast 3100 ft
2020/01/24 18:53 KLIT 241853Z 30018KT 10SM OVC031 06/M01 A3003 RMK AO2 SLP173 T00611006
KSGT - Stuttgart, Arkansas
Updated: Fri, Jan-Fri-2020 12:56pm
Overcast
Overcast
 Wind from WNW
Wind: WNW 21 mph , 33 km/h, Gust: 28 mph , 44 km/h
Temperature: 45°F , 7°C
Wind Chill: 37°F , 3°C
Dew Point: 34°F , 1°C
Humidity: 66%
Barometer: 30.01 inHg , 1016.3 hPa
Clouds: Overcast
Visibility: 10 miles , 16 km
Cloud details: Overcast 3100 ft
2020/01/24 18:56 KSGT 241856Z AUTO 29018G24KT 10SM OVC031 07/01 A3001 RMK AO2 SLP166 T00670011
 
KAWM - West Memphis, Arkansas
Updated: Fri, Jan-Fri-2020 12:53pm
Light rain, Overcast
Light rain, Overcast
 Wind from W
Wind: W 9 mph , 15 km/h
Temperature: 43°F , 6°C
Wind Chill: 38°F , 3°C
Dew Point: 37°F , 3°C
Humidity: 81%
Barometer: 29.95 inHg , 1014.2 hPa
Summary: Light rain
Clouds: Overcast
Visibility: 10 miles , 16 km
Cloud details: Mostly cloudy 2100 ft
Overcast 3000 ft
2020/01/24 18:53 KAWM 241853Z AUTO 27008KT 10SM -RA BKN021 OVC030 06/03 A2995 RMK AO2 RAB37 SLP143 P0001 T00610028
KFSM - Fort Smith, Arkansas
Updated: Fri, Jan-Fri-2020 12:53pm
Overcast
Overcast
 Wind from W
Wind: W 17 mph , 28 km/h
Temperature: 39°F , 4°C
Wind Chill: 30°F , -1°C
Dew Point: 32°F , 0°C
Humidity: 75%
Barometer: 30.09 inHg , 1019 hPa
Clouds: Overcast
Visibility: 10 miles , 16 km
Cloud details: Overcast 2200 ft
2020/01/24 18:53 KFSM 241853Z 28015KT 10SM OVC022 04/00 A3009 RMK AO2 SLP191 T00390000
KMWT - Mount Ida, Arkansas
Updated: Fri, Jan-Fri-2020 12:53pm
Overcast
Overcast
 Wind from WNW
Wind: WNW 10 mph , 17 km/h, Gust: 16 mph , 26 km/h
Temperature: 39°F , 4°C
Wind Chill: 32°F , 0°C
Dew Point: 30°F , -1°C
Humidity: 70%
Barometer: 30.04 inHg , 1017.3 hPa
Clouds: Overcast
Cloud details: Overcast 2200 ft
2020/01/24 18:53 KMWT 241853Z AUTO 30009G14KT OVC022 04/M01 A3004 RMK AO2 SLP178 T00441011 $
 
KMEZ - Mena, Arkansas
Updated: Fri, Jan-Fri-2020 1:15pm
Overcast
Overcast
 Wind from W
Wind: W 12 mph , 19 km/h, Gust: 18 mph , 30 km/h
Temperature: 41°F , 5°C
Wind Chill: 34°F , 1°C
Dew Point: 32°F , 0°C
Humidity: 70%
Barometer: 30.07 inHg , 1018.3 hPa
Clouds: Overcast
Visibility: 10 miles , 16 km
Cloud details: Overcast 1900 ft
2020/01/24 19:15 KMEZ 241915Z AUTO 28010G16KT 10SM OVC019 05/00 A3007 RMK AO2
KHOT - Hot Springs, Arkansas
Updated: Fri, Jan-Fri-2020 12:53pm
Overcast
Overcast
 Wind from NW
Wind: NW 10 mph , 17 km/h, Gust: 20 mph , 31 km/h
Temperature: 43°F , 6°C
Wind Chill: 37°F , 3°C
Dew Point: 30°F , -1°C
Humidity: 61%
Barometer: 30.05 inHg , 1017.6 hPa
Clouds: Overcast
Visibility: 10 miles , 16 km
Cloud details: Overcast 2400 ft
2020/01/24 18:53 KHOT 241853Z AUTO 31009G17KT 10SM OVC024 06/M01 A3005 RMK AO2 SLP178 T00611006
KADF - Arkadelphia, Arkansas
Updated: Fri, Jan-Fri-2020 1:00pm
Haze, Overcast
Haze, Overcast
 Wind from NW
Wind: NW 15 mph , 24 km/h, Gust: 21 mph , 33 km/h
Temperature: 48°F , 9°C
Wind Chill: 42°F , 6°C
Dew Point: 34°F , 1°C
Humidity: 58%
Barometer: 30.07 inHg , 1018.3 hPa
Summary: Haze
Clouds: Overcast
Visibility: 5 miles , 8 km
Cloud details: Overcast 3400 ft
2020/01/24 19:00 KADF 241900Z AUTO 31013G18KT 5SM HZ OVC034 09/01 A3007 RMK AO2
 
KSGT - Stuttgart, Arkansas
Updated: Fri, Jan-Fri-2020 12:56pm
Overcast
Overcast
 Wind from WNW
Wind: WNW 21 mph , 33 km/h, Gust: 28 mph , 44 km/h
Temperature: 45°F , 7°C
Wind Chill: 37°F , 3°C
Dew Point: 34°F , 1°C
Humidity: 66%
Barometer: 30.01 inHg , 1016.3 hPa
Clouds: Overcast
Visibility: 10 miles , 16 km
Cloud details: Overcast 3100 ft
2020/01/24 18:56 KSGT 241856Z AUTO 29018G24KT 10SM OVC031 07/01 A3001 RMK AO2 SLP166 T00670011
KPBF - Pine Bluff, Arkansas
Updated: Fri, Jan-Fri-2020 12:53pm
Overcast
Overcast
 Wind from W
Wind: W 14 mph , 22 km/h
Temperature: 46°F , 8°C
Wind Chill: 40°F , 4°C
Dew Point: 34°F , 1°C
Humidity: 62%
Barometer: 30.03 inHg , 1016.9 hPa
Clouds: Overcast
Visibility: 10 miles , 16 km
Cloud details: Overcast 3600 ft
2020/01/24 18:53 KPBF 241853Z AUTO 28012KT 10SM OVC036 08/01 A3003 RMK AO2 SLP169 T00780006
KSRC - Searcy, Arkansas
Updated: Fri, Jan-Fri-2020 1:03pm
Overcast
Overcast
 Wind from W
Wind: W 15 mph , 24 km/h, Gust: 23 mph , 37 km/h
Temperature: 45°F , 7°C
Wind Chill: 38°F , 3°C
Dew Point: 36°F , 2°C
Humidity: 71%
Barometer: 30.00 inHg , 1015.9 hPa
Clouds: Overcast
Visibility: 10 miles , 16 km
Cloud details: Mostly cloudy 2300 ft
Overcast 3100 ft
2020/01/24 19:03 KSRC 241903Z AUTO 26013G20KT 10SM BKN023 OVC031 07/02 A3000 RMK AO2
 
KRUE - Russellville, Arkansas
Updated: Fri, Jan-Fri-2020 12:53pm
Overcast
Overcast
 Wind from W
Wind: W 12 mph , 19 km/h, Gust: 22 mph , 35 km/h
Temperature: 39°F , 4°C
Wind Chill: 32°F , 0°C
Dew Point: 30°F , -1°C
Humidity: 70%
Barometer: 30.04 inHg , 1017.3 hPa
Clouds: Overcast
Visibility: 10 miles , 16 km
Cloud details: Overcast 1900 ft
2020/01/24 18:53 KRUE 241853Z AUTO 27010G19KT 10SM OVC019 04/M01 A3004 RMK AO2 SLP170 T00391006
KCCA - Clinton, Arkansas
Updated: Fri, Jan-Fri-2020 1:15pm
Overcast
Overcast
 Wind from W
Wind: W 13 mph , 20 km/h
Temperature: 41°F , 5°C
Wind Chill: 34°F , 1°C
Dew Point: 30°F , -1°C
Humidity: 66%
Barometer: 30.00 inHg , 1015.9 hPa
Clouds: Overcast
Visibility: 10 miles , 16 km
Cloud details: Overcast 2900 ft
2020/01/24 19:15 KCCA 241915Z AUTO 27011KT 10SM OVC029 05/M01 A3000 RMK AO2
KLLQ - Monticello, Arkansas
Updated: Fri, Jan-Fri-2020 12:53pm
Overcast
Overcast
 Wind from W
Wind: W 13 mph , 20 km/h
Temperature: 46°F , 8°C
Wind Chill: 40°F , 4°C
Dew Point: 36°F , 2°C
Humidity: 66%
Barometer: 30.05 inHg , 1017.6 hPa
Clouds: Overcast
Visibility: 10 miles , 16 km
Cloud details: Mostly cloudy 2800 ft
Overcast 3300 ft
2020/01/24 18:53 KLLQ 241853Z AUTO 27011KT 10SM BKN028 OVC033 08/02 A3005 RMK AO2 SLP175 T00780017
 
KCDH - Camden, Arkansas
Updated: Fri, Jan-Fri-2020 1:15pm
Overcast
Overcast
 Wind from NW
Wind: NW 13 mph , 20 km/h
Temperature: 50°F , 10°C
Wind Chill: 45°F , 7°C
Dew Point: 32°F , 0°C
Humidity: 50%
Barometer: 30.07 inHg , 1018.3 hPa
Clouds: Overcast
Visibility: 10 miles , 16 km
Cloud details: Overcast 3400 ft
2020/01/24 19:15 KCDH 241915Z AUTO 32011KT 10SM OVC034 10/00 A3007 RMK AO2
KM19 - Newport, Arkansas
Updated: Fri, Jan-Fri-2020 1:05pm
Overcast
Overcast
 Wind from W
Wind: W 17 mph , 28 km/h
Temperature: 43°F , 6°C
Wind Chill: 35°F , 2°C
Dew Point: 34°F , 1°C
Humidity: 71%
Barometer: 29.97 inHg , 1014.9 hPa
Clouds: Overcast
Visibility: 10 miles , 16 km
Cloud details: Mostly cloudy 3000 ft
Overcast 3700 ft
2020/01/24 19:05 KM19 241905Z AUTO 28015KT 10SM BKN030 OVC037 06/01 A2997 RMK AO2
KDEQ - De Queen, Arkansas
Updated: Fri, Jan-Fri-2020 12:53pm
Mostly cloudy
Mostly cloudy
 Wind from NNW
Wind: NNW 7 mph , 11 km/h
Temperature: 46°F , 8°C
Wind Chill: 42°F , 6°C
Dew Point: 30°F , -1°C
Humidity: 53%
Barometer: 30.09 inHg , 1019 hPa
Clouds: Mostly cloudy
Visibility: 10 miles , 16 km
Cloud details: Mostly cloudy 3200 ft
2020/01/24 18:53 KDEQ 241853Z AUTO 33006KT 10SM BKN032 08/M01 A3009 RMK AO1 SLP188 T00781006
 
KTXK - Texarkana, Arkansas
Updated: Fri, Jan-Fri-2020 12:53pm
Mostly cloudy
Mostly cloudy
 Wind from NW
Wind: NW 14 mph , 22 km/h
Temperature: 46°F , 8°C
Wind Chill: 40°F , 4°C
Dew Point: 36°F , 2°C
Humidity: 66%
Barometer: 30.10 inHg , 1019.3 hPa
Clouds: Mostly cloudy
Visibility: 10 miles , 16 km
Cloud details: Mostly cloudy 2700 ft
2020/01/24 18:53 KTXK 241853Z 31012KT 10SM BKN027 08/02 A3010 RMK AO2 SLP193 T00830017
KELD - El Dorado, Arkansas
Updated: Fri, Jan-Fri-2020 12:53pm
Mostly cloudy
Mostly cloudy
 Wind from WNW
Wind: WNW 10 mph , 17 km/h
Temperature: 48°F , 9°C
Wind Chill: 44°F , 7°C
Dew Point: 37°F , 3°C
Humidity: 66%
Barometer: 30.08 inHg , 1018.6 hPa
Clouds: Mostly cloudy
Visibility: 10 miles , 16 km
Cloud details: Mostly cloudy 3500 ft
2020/01/24 18:53 KELD 241853Z AUTO 29009KT 10SM BKN035 09/03 A3008 RMK AO2 SLP185 T00890028
KCSM - Clinton, Oklahoma
Updated: Fri, Jan-Fri-2020 12:53pm
Clear
Clear
 Wind from NW
Wind: NW 6 mph , 9 km/h
Temperature: 52°F , 11°C
Dew Point: 25°F , -4°C
Humidity: 35%
Barometer: 30.12 inHg , 1020 hPa
Clouds: Clear
Visibility: 10 miles , 16 km
2020/01/24 18:53 KCSM 241853Z 31005KT 10SM CLR 11/M04 A3012 RMK AO2 SLP203 T01061039
 
KHBR - Hobart, Oklahoma
Updated: Fri, Jan-Fri-2020 12:53pm
Clear
Clear
 Wind from NW
Wind: NW 7 mph , 11 km/h
Temperature: 52°F , 11°C
Dew Point: 28°F , -2°C
Humidity: 41%
Barometer: 30.14 inHg , 1020.7 hPa
Clouds: Clear
Visibility: 10 miles , 16 km
2020/01/24 18:53 KHBR 241853Z AUTO 31006KT 10SM CLR 11/M02 A3014 RMK AO2 SLP209 T01061022
KLTS - Altus Afb, Oklahoma
Updated: Fri, Jan-Fri-2020 11:56am
NOT Current
Clear
Clear
 Wind from NNW
Wind: NNW 6 mph , 9 km/h
Temperature: 52°F , 11°C
Dew Point: 23°F , -5°C
Humidity: 32%
Barometer: 30.17 inHg , 1021.7 hPa
Clouds: Clear
Visibility: 10 miles , 16 km
2020/01/24 17:56 KLTS 241756Z AUTO 33005KT 10SM CLR 11/M05 A3017 RMK AO2 SLP220 T01051047 10105 21041 58002 $
KFSI - Fort Sill, Oklahoma
Updated: Fri, Jan-Fri-2020 11:56am
NOT Current
Clear
Clear
 Wind from NNW
Wind: NNW 7 mph , 11 km/h
Temperature: 50°F , 10°C
Wind Chill: 47°F , 8°C
Dew Point: 30°F , -1°C
Humidity: 47%
Barometer: 30.15 inHg , 1021 hPa
Clouds: Clear
Visibility: 10 miles , 16 km
2020/01/24 17:56 KFSI 241756Z AUTO 34006KT 10SM CLR 10/M01 A3015 RMK AO2 SLP213 T00991006 10099 20006 58002
 
KGAG - Gage, Oklahoma
Updated: Fri, Jan-Fri-2020 12:53pm
Partly cloudy
Partly cloudy
 Wind from NNW
Wind: NNW 8 mph , 13 km/h
Temperature: 52°F , 11°C
Dew Point: 21°F , -6°C
Humidity: 30%
Barometer: 30.09 inHg , 1019 hPa
Clouds: Partly cloudy
Visibility: 10 miles , 16 km
Cloud details: Partly cloudy 8000 ft
2020/01/24 18:53 KGAG 241853Z AUTO 33007KT 10SM SCT080 11/M06 A3009 RMK AO2 SLP194 T01111056
KWWR - Woodward, Oklahoma
Updated: Fri, Jan-Fri-2020 1:15pm
Partly cloudy
Partly cloudy
 Wind from NW
Wind: NW 7 mph , 11 km/h
Temperature: 46°F , 8°C
Wind Chill: 42°F , 6°C
Dew Point: 25°F , -4°C
Humidity: 43%
Barometer: 30.11 inHg , 1019.6 hPa
Clouds: Partly cloudy
Visibility: 10 miles , 16 km
Cloud details: Partly cloudy 7500 ft
2020/01/24 19:15 KWWR 241915Z AUTO 31006KT 10SM SCT075 08/M04 A3011 RMK AO2
KLAW - Lawton, Oklahoma
Updated: Fri, Jan-Fri-2020 12:53pm
Clear
Clear
 Wind from WNW
Wind: WNW 9 mph , 15 km/h
Temperature: 54°F , 12°C
Dew Point: 30°F , -1°C
Humidity: 41%
Barometer: 30.14 inHg , 1020.7 hPa
Clouds: Clear
Visibility: 10 miles , 16 km
2020/01/24 18:53 KLAW 241853Z 29008KT 10SM CLR 12/M01 A3014 RMK AO2 SLP209 T01171011
 
KOKC - Oklahoma City, Oklahoma
Updated: Fri, Jan-Fri-2020 12:52pm
Few Clouds
Few Clouds
 Wind from NNW
Wind: NNW 16 mph , 26 km/h
Temperature: 45°F , 7°C
Wind Chill: 38°F , 3°C
Dew Point: 30°F , -1°C
Humidity: 57%
Barometer: 30.11 inHg , 1019.6 hPa
Clouds: Few Clouds
Visibility: 10 miles , 16 km
Cloud details: Few Clouds 3500 ft
2020/01/24 18:52 KOKC 241852Z 34014KT 10SM FEW035 07/M01 A3011 RMK AO2 SLP200 T00721011 $
KEND - Enid/Vance Afb, Oklahoma
Updated: Fri, Jan-Fri-2020 11:56am
NOT Current
Clear
Clear
 Wind from NW
Wind: NW 14 mph , 22 km/h
Temperature: 45°F , 7°C
Wind Chill: 39°F , 4°C
Dew Point: 30°F , -1°C
Humidity: 57%
Barometer: 30.12 inHg , 1020 hPa
Clouds: Clear
Visibility: 10 miles , 16 km
2020/01/24 17:56 KEND 241756Z AUTO 32012KT 10SM CLR 07/M01 A3012 RMK AO2 SLP207 T00681007 10069 20012 50001 $
KFDR - Frederick/Altus, Oklahoma
Updated: Fri, Jan-Fri-2020 12:53pm
Clear
Clear
 Wind from calm
Wind: Calm
Temperature: 52°F , 11°C
Dew Point: 32°F , 0°C
Humidity: 47%
Barometer: 30.12 inHg , 1020 hPa
Clouds: Clear
Visibility: 10 miles , 16 km
2020/01/24 18:53 KFDR 241853Z AUTO 00000KT 10SM CLR 11/00 A3012 RMK AO2 SLP200 T01060000
 
KOUN - Norman, Oklahoma
Updated: Fri, Jan-Fri-2020 12:47pm
Clear
Clear
 Wind from NW
Wind: NW 17 mph , 28 km/h, Gust: 25 mph , 41 km/h
Temperature: 46°F , 8°C
Wind Chill: 39°F , 4°C
Dew Point: 30°F , -1°C
Humidity: 53%
Barometer: 30.09 inHg , 1019 hPa
Clouds: Clear
Visibility: 10 miles , 16 km
2020/01/24 18:47 KOUN 241847Z 32015G22KT 10SM CLR 08/M01 A3009
KTIK - Tinker Afb, Oklahoma
Updated: Fri, Jan-Fri-2020 11:56am
NOT Current
Clear
Clear
 Wind from NW
Wind: NW 16 mph , 26 km/h, Gust: 22 mph , 35 km/h
Temperature: 45°F , 7°C
Wind Chill: 38°F , 3°C
Dew Point: 28°F , -2°C
Humidity: 53%
Barometer: 30.13 inHg , 1020.3 hPa
Clouds: Clear
Visibility: 10 miles , 16 km
2020/01/24 17:56 KTIK 241756Z AUTO 32014G19KT 10SM CLR 07/M02 A3013 RMK AO2 SLP216 T00691018 10069 20018 50002
KGOK - Guthrie, Oklahoma
Updated: Fri, Jan-Fri-2020 12:53pm
Clear
Clear
 Wind from NW
Wind: NW 16 mph , 26 km/h, Gust: 21 mph , 33 km/h
Temperature: 46°F , 8°C
Wind Chill: 39°F , 4°C
Dew Point: 28°F , -2°C
Humidity: 50%
Barometer: 30.12 inHg , 1020 hPa
Clouds: Clear
Visibility: 10 miles , 16 km
2020/01/24 18:53 KGOK 241853Z AUTO 31014G18KT 10SM CLR 08/M02 A3012 RMK AO2 SLP204 T00781017 $
 
KSNL - Shawnee, Oklahoma
Updated: Fri, Jan-Fri-2020 1:15pm
Clear
Clear
 Wind from NW
Wind: NW 10 mph , 17 km/h, Gust: 17 mph , 28 km/h
Temperature: 46°F , 8°C
Wind Chill: 41°F , 5°C
Dew Point: 28°F , -2°C
Humidity: 50%
Barometer: 30.10 inHg , 1019.3 hPa
Clouds: Clear
Visibility: 10 miles , 16 km
2020/01/24 19:15 KSNL 241915Z AUTO 31009G15KT 10SM CLR 08/M02 A3010 RMK AO2 T00841018
KCQB - Chandler, Oklahoma
Updated: Fri, Jan-Fri-2020 1:15pm
Clear
Clear
 Wind from WNW
Wind: WNW 14 mph , 22 km/h, Gust: 21 mph , 33 km/h
Temperature: 45°F , 7°C
Wind Chill: 39°F , 4°C
Dew Point: 28°F , -2°C
Humidity: 53%
Barometer: 30.11 inHg , 1019.6 hPa
Clouds: Clear
Visibility: 10 miles , 16 km
2020/01/24 19:15 KCQB 241915Z AUTO 30012G18KT 10SM CLR 07/M02 A3011 RMK AO2 T00681021
KPVJ - Pauls Valley, Oklahoma
Updated: Fri, Jan-Fri-2020 1:15pm
Clear
Clear
 Wind from NNW
Wind: NNW 10 mph , 17 km/h, Gust: 16 mph , 26 km/h
Temperature: 50°F , 10°C
Wind Chill: 46°F , 8°C
Dew Point: 32°F , 0°C
Humidity: 50%
Barometer: 30.11 inHg , 1019.6 hPa
Clouds: Clear
Visibility: 10 miles , 16 km
2020/01/24 19:15 KPVJ 241915Z AUTO 33009G14KT 10SM CLR 10/00 A3011 RMK AO2 T00950000
 
KEND - Enid/Vance Afb, Oklahoma
Updated: Fri, Jan-Fri-2020 11:56am
NOT Current
Clear
Clear
 Wind from NW
Wind: NW 14 mph , 22 km/h
Temperature: 45°F , 7°C
Wind Chill: 39°F , 4°C
Dew Point: 30°F , -1°C
Humidity: 57%
Barometer: 30.12 inHg , 1020 hPa
Clouds: Clear
Visibility: 10 miles , 16 km
2020/01/24 17:56 KEND 241756Z AUTO 32012KT 10SM CLR 07/M01 A3012 RMK AO2 SLP207 T00681007 10069 20012 50001 $
KSWO - Stillwater, Oklahoma
Updated: Fri, Jan-Fri-2020 12:53pm
Partly cloudy
Partly cloudy
 Wind from NW
Wind: NW 12 mph , 19 km/h, Gust: 20 mph , 31 km/h
Temperature: 43°F , 6°C
Wind Chill: 37°F , 3°C
Dew Point: 28°F , -2°C
Humidity: 57%
Barometer: 30.12 inHg , 1020 hPa
Clouds: Partly cloudy
Visibility: 10 miles , 16 km
Cloud details: Partly cloudy 2700 ft
2020/01/24 18:53 KSWO 241853Z 31010G17KT 10SM SCT027 06/M02 A3012 RMK AO2 SLP202 T00611017 $
KFSI - Fort Sill, Oklahoma
Updated: Fri, Jan-Fri-2020 11:56am
NOT Current
Clear
Clear
 Wind from NNW
Wind: NNW 7 mph , 11 km/h
Temperature: 50°F , 10°C
Wind Chill: 47°F , 8°C
Dew Point: 30°F , -1°C
Humidity: 47%
Barometer: 30.15 inHg , 1021 hPa
Clouds: Clear
Visibility: 10 miles , 16 km
2020/01/24 17:56 KFSI 241756Z AUTO 34006KT 10SM CLR 10/M01 A3015 RMK AO2 SLP213 T00991006 10099 20006 58002
 
KDUC - Duncan, Oklahoma
Updated: Fri, Jan-Fri-2020 1:15pm
Clear
Clear
 Wind from NW
Wind: NW 10 mph , 17 km/h
Temperature: 50°F , 10°C
Wind Chill: 46°F , 8°C
Dew Point: 32°F , 0°C
Humidity: 50%
Barometer: 30.14 inHg , 1020.7 hPa
Clouds: Clear
Visibility: 10 miles , 16 km
2020/01/24 19:15 KDUC 241915Z AUTO 32009KT 10SM CLR 10/00 A3014 RMK AO2 T01041004
KOKM - Okmulgee, Oklahoma
Updated: Fri, Jan-Fri-2020 1:15pm
Overcast
Overcast
 Wind from NW
Wind: NW 9 mph , 15 km/h
Temperature: 37°F , 3°C
Wind Chill: 30°F , -1°C
Dew Point: 30°F , -1°C
Humidity: 75%
Barometer: 30.11 inHg , 1019.6 hPa
Clouds: Overcast
Visibility: 10 miles , 16 km
Cloud details: Overcast 2400 ft
2020/01/24 19:15 KOKM 241915Z AUTO 32008KT 10SM OVC024 03/M01 A3011 RMK AO2 T00341015
KMLC - Mcalester, Oklahoma
Updated: Fri, Jan-Fri-2020 12:53pm
Mostly cloudy
Mostly cloudy
 Wind from NW
Wind: NW 10 mph , 17 km/h, Gust: 20 mph , 31 km/h
Temperature: 43°F , 6°C
Wind Chill: 37°F , 3°C
Dew Point: 30°F , -1°C
Humidity: 61%
Barometer: 30.12 inHg , 1020 hPa
Clouds: Mostly cloudy
Visibility: 10 miles , 16 km
Cloud details: Mostly cloudy 3000 ft
2020/01/24 18:53 KMLC 241853Z AUTO 32009G17KT 10SM BKN030 06/M01 A3012 RMK AO2 SLP202 T00561011
 
KMKO - Muskogee, Oklahoma
Updated: Fri, Jan-Fri-2020 12:53pm
Overcast
Overcast
 Wind from WNW
Wind: WNW 13 mph , 20 km/h, Gust: 25 mph , 41 km/h
Temperature: 39°F , 4°C
Wind Chill: 31°F , -1°C
Dew Point: 30°F , -1°C
Humidity: 70%
Barometer: 30.12 inHg , 1020 hPa
Clouds: Overcast
Visibility: 10 miles , 16 km
Cloud details: Overcast 2300 ft
2020/01/24 18:53 KMKO 241853Z AUTO 30011G22KT 10SM OVC023 04/M01 A3012 RMK AO2 SLP202 T00391011
KRVS - Tulsa, Oklahoma
Updated: Fri, Jan-Fri-2020 12:53pm
Overcast
Overcast
 Wind from varies
Wind: varies 6 mph , 9 km/h
Temperature: 39°F , 4°C
Wind Chill: 35°F , 2°C
Dew Point: 28°F , -2°C
Humidity: 65%
Barometer: 30.12 inHg , 1020 hPa
Clouds: Overcast
Visibility: 10 miles , 16 km
Cloud details: Overcast 2200 ft
2020/01/24 18:53 KRVS 241853Z VRB05KT 10SM OVC022 04/M02 A3012 RMK AO2 SLP206 T00391017
KGZL - Stigler, Oklahoma
Updated: Fri, Jan-Fri-2020 1:15pm
Overcast
Overcast
 Wind from NW
Wind: NW 12 mph , 19 km/h, Gust: 18 mph , 30 km/h
Temperature: 39°F , 4°C
Wind Chill: 32°F , 0°C
Dew Point: 27°F , -3°C
Humidity: 61%
Barometer: 30.11 inHg , 1019.6 hPa
Clouds: Overcast
Visibility: 10 miles , 16 km
Cloud details: Overcast 2400 ft
2020/01/24 19:15 KGZL 241915Z AUTO 31010G16KT 10SM OVC024 04/M03 A3011 RMK AO2
 
KADH - Ada, Oklahoma
Updated: Fri, Jan-Fri-2020 1:15pm
Clear
Clear
 Wind from NNW
Wind: NNW 13 mph , 20 km/h, Gust: 20 mph , 31 km/h
Temperature: 48°F , 9°C
Wind Chill: 43°F , 6°C
Dew Point: 30°F , -1°C
Humidity: 50%
Barometer: 30.10 inHg , 1019.3 hPa
Clouds: Clear
Visibility: 10 miles , 16 km
2020/01/24 19:15 KADH 241915Z AUTO 34011G17KT 300V360 10SM CLR 09/M01 A3010 RMK AO2
KAQR - Atoka, Oklahoma
Updated: Fri, Jan-Fri-2020 1:15pm
Clear
Clear
 Wind from NNW
Wind: NNW 8 mph , 13 km/h
Temperature: 45°F , 7°C
Wind Chill: 41°F , 5°C
Dew Point: 28°F , -2°C
Humidity: 53%
Barometer: 30.14 inHg , 1020.7 hPa
Clouds: Clear
Visibility: 10 miles , 16 km
2020/01/24 19:15 KAQR 241915Z AUTO 34007KT 10SM CLR 07/M02 A3014 RMK AO2
KJSV - Sallisaw, Oklahoma
Updated: Fri, Jan-Fri-2020 1:15pm
Mostly cloudy
Mostly cloudy
 Wind from WNW
Wind: WNW 14 mph , 22 km/h
Temperature: 39°F , 4°C
Wind Chill: 31°F , -1°C
Dew Point: 32°F , 0°C
Humidity: 75%
Barometer: 30.10 inHg , 1019.3 hPa
Clouds: Mostly cloudy
Visibility: 10 miles , 16 km
Cloud details: Mostly cloudy 2400 ft
2020/01/24 19:15 KJSV 241915Z AUTO 29012KT 10SM BKN024 04/00 A3010 RMK AO2
 
KTQH - Tahlequah, Oklahoma
Updated: Fri, Jan-Fri-2020 1:15pm
Overcast
Overcast
 Wind from NW
Wind: NW 12 mph , 19 km/h
Temperature: 36°F , 2°C
Wind Chill: 28°F , -2°C
Dew Point: 32°F , 0°C
Humidity: 87%
Barometer: 30.09 inHg , 1019 hPa
Clouds: Overcast
Visibility: 10 miles , 16 km
Cloud details: Overcast 2000 ft
2020/01/24 19:15 KTQH 241915Z AUTO 31010KT 10SM OVC020 02/00 A3009 RMK AO2
KGCM - Claremore, Oklahoma
Updated: Fri, Jan-Fri-2020 1:15pm
Overcast
Overcast
 Wind from WNW
Wind: WNW 9 mph , 15 km/h, Gust: 16 mph , 26 km/h
Temperature: 37°F , 3°C
Wind Chill: 30°F , -1°C
Dew Point: 25°F , -4°C
Humidity: 60%
Barometer: 30.10 inHg , 1019.3 hPa
Clouds: Overcast
Visibility: 10 miles , 16 km
Cloud details: Overcast 2300 ft
2020/01/24 19:15 KGCM 241915Z AUTO 30008G14KT 10SM OVC023 03/M04 A3010 RMK AO2
KRKR - Poteau, Oklahoma
Updated: Fri, Jan-Fri-2020 1:15pm
Overcast
Overcast
 Wind from W
Wind: W 10 mph , 17 km/h
Temperature: 37°F , 3°C
Wind Chill: 30°F , -1°C
Dew Point: 30°F , -1°C
Humidity: 75%
Barometer: 30.11 inHg , 1019.6 hPa
Clouds: Overcast
Visibility: 10 miles , 16 km
Cloud details: Overcast 2300 ft
2020/01/24 19:15 KRKR 241915Z AUTO 27009KT 10SM OVC023 03/M01 A3011 RMK AO2
 
KGMJ - Grove, Oklahoma
Updated: Fri, Jan-Fri-2020 1:15pm
Overcast
Overcast
 Wind from W
Wind: W 14 mph , 22 km/h, Gust: 18 mph , 30 km/h
Temperature: 34°F , 1°C
Wind Chill: 25°F , -4°C
Dew Point: 30°F , -1°C
Humidity: 87%
Barometer: 30.07 inHg , 1018.3 hPa
Clouds: Overcast
Visibility: 10 miles , 16 km
Cloud details: Mostly cloudy 1600 ft
Overcast 2100 ft
2020/01/24 19:15 KGMJ 241915Z AUTO 28012G16KT 10SM BKN016 OVC021 01/M01 A3007 RMK AO2
K4O4 - Idabel, Oklahoma
Updated: Fri, Jan-Fri-2020 1:15pm
Partly cloudy
Partly cloudy
 Wind from WNW
Wind: WNW 10 mph , 17 km/h
Temperature: 46°F , 8°C
Wind Chill: 41°F , 5°C
Dew Point: 32°F , 0°C
Humidity: 57%
Barometer: 30.08 inHg , 1018.6 hPa
Clouds: Partly cloudy
Visibility: 10 miles , 16 km
Cloud details: Partly cloudy 3300 ft
2020/01/24 19:15 K4O4 241915Z AUTO 30009KT 10SM SCT033 08/00 A3008 RMK AO2
KHHW - Hugo, Oklahoma
Updated: Wed, Jun-Wed-2019 9:18am
NOT Current
Clear
Clear
 Wind from WSW
Wind: WSW 8 mph , 13 km/h
Temperature: 70°F , 21°C
Dew Point: 61°F , 16°C
Humidity: 73%
Barometer: 30.00 inHg , 1015.9 hPa
Clouds: Clear
Visibility: 10 miles , 16 km
2019/06/12 14:18 KHHW 121418Z 24007KT 10SM CLR 21/16 A3000
 
KDUA - Durant, Oklahoma
Updated: Fri, Jan-Fri-2020 1:19pm
Clear
Clear
 Wind from NNW
Wind: NNW 16 mph , 26 km/h, Gust: 20 mph , 31 km/h
Temperature: 54°F , 12°C
Dew Point: 32°F , 0°C
Humidity: 44%
Barometer: 30.13 inHg , 1020.3 hPa
Clouds: Clear
Visibility: 10 miles , 16 km
2020/01/24 19:19 KDUA 241919Z AUTO 33014G17KT 10SM CLR 12/00 A3013 RMK AO2
KSTJ - St. Joseph, Missouri
Updated: Fri, Jan-Fri-2020 1:00pm
Haze, Overcast
Haze, Overcast
 Wind from NW
Wind: NW 14 mph , 22 km/h
Temperature: 45°F , 7°C
Wind Chill: 39°F , 4°C
Dew Point: 28°F , -2°C
Humidity: 53%
Barometer: 30.00 inHg , 1015.9 hPa
Summary: Haze
Clouds: Overcast
Visibility: 2 1/2 miles , 4 km
Cloud details: Overcast 1300 ft
2020/01/24 19:00 KSTJ 241900Z 31012KT 2 1/2SM HZ OVC013 07/M02 A3000 RMK AO2 T00721017
KMCI - Kansas City/Intl, Missouri
Updated: Fri, Jan-Fri-2020 1:14pm
Mist, Overcast
Mist, Overcast
 Wind from WNW
Wind: WNW 13 mph , 20 km/h
Temperature: 34°F , 1°C
Wind Chill: 25°F , -4°C
Dew Point: 30°F , -1°C
Humidity: 87%
Barometer: 29.97 inHg , 1014.9 hPa
Summary: Mist
Clouds: Overcast
Visibility: 3 miles , 5 km
Cloud details: Overcast 900 ft
2020/01/24 19:14 KMCI 241914Z 30011KT 3SM BR OVC009 01/M01 A2997 RMK AO2 T00061011 $
 
KMKC - Kansas City/Dntn, Missouri
Updated: Fri, Jan-Fri-2020 1:03pm
Mist, Overcast
Mist, Overcast
 Wind from WNW
Wind: WNW 13 mph , 20 km/h
Temperature: 34°F , 1°C
Wind Chill: 25°F , -4°C
Dew Point: 28°F , -2°C
Humidity: 81%
Barometer: 29.98 inHg , 1015.2 hPa
Summary: Mist
Clouds: Overcast
Visibility: 4 miles , 6 km
Cloud details: Overcast 1300 ft
2020/01/24 19:03 KMKC 241903Z 30011KT 4SM BR OVC013 01/M02 A2998 RMK AO2 T00061017
KCDJ - Chillicothe, Missouri
Updated: Fri, Jan-Fri-2020 12:52pm

 Wind from NNW
Wind: NNW 8 mph , 13 km/h, Gust: 18 mph , 30 km/h
Temperature: 34°F , 1°C
Wind Chill: 27°F , -3°C
Dew Point: 30°F , -1°C
Humidity: 87%
Barometer: 29.93 inHg , 1013.5 hPa
2020/01/24 18:52 KCDJ 241852Z AUTO 33007G16KT 01/M01 A2993 RMK AO1 SLP148 T00061011
KIRK - Kirksville, Missouri
Updated: Fri, Jan-Fri-2020 12:55pm
Mist, Overcast
Mist, Overcast
 Wind from NNW
Wind: NNW 9 mph , 15 km/h
Temperature: 34°F , 1°C
Wind Chill: 27°F , -3°C
Dew Point: 30°F , -1°C
Humidity: 87%
Barometer: 29.87 inHg , 1011.5 hPa
Summary: Mist
Clouds: Overcast
Visibility: 5 miles , 8 km
Cloud details: Overcast 800 ft
2020/01/24 18:55 KIRK 241855Z AUTO 33008KT 5SM BR OVC008 01/M01 A2987 RMK AO2 SLP125 T00061006
 
KSZL - Whiteman Afb, Missouri
Updated: Fri, Jan-Fri-2020 11:57am
NOT Current
Light snow, Mist, Overcast
Light snow, Mist, Overcast
 Wind from NW
Wind: NW 12 mph , 19 km/h
Temperature: 34°F , 1°C
Wind Chill: 25°F , -4°C
Dew Point: 34°F , 1°C
Humidity: 100%
Barometer: 29.90 inHg , 1012.5 hPa
Summary: Light snow, Mist
Clouds: Overcast
Visibility: 2 miles , 3 km
Cloud details: Few Clouds 800 ft
Overcast 1400 ft
2020/01/24 17:57 KSZL 241757Z 32010KT 2SM -SN BR FEW008 OVC014 01/01 A2990 RMK AO2A P0000 60003 4/004 T00070007 10007 20000 50007 $
KDMO - Sedalia, Missouri
Updated: Fri, Jan-Fri-2020 7:19am
NOT Current
Light snow, Mist, Overcast
Light snow, Mist, Overcast
 Wind from NW
Wind: NW 12 mph , 19 km/h
Temperature: 32°F , 0°C
Wind Chill: 23°F , -5°C
Dew Point: 30°F , -1°C
Humidity: 93%
Barometer: 29.88 inHg , 1011.9 hPa
Summary: Light snow, Mist
Clouds: Overcast
Visibility: 2 miles , 3 km
Cloud details: Overcast 600 ft
2020/01/24 13:19 KDMO 241319Z AUTO 31010KT 2SM -SN BR OVC006 00/M01 A2988 RMK AO2 P0001 T00001006 $
KGLY - Clinton, Missouri
Updated: Fri, Jan-Fri-2020 1:15pm
Light snow, Mostly cloudy
Light snow, Mostly cloudy
 Wind from WNW
Wind: WNW 12 mph , 19 km/h, Gust: 16 mph , 26 km/h
Temperature: 32°F , 0°C
Wind Chill: 23°F , -5°C
Dew Point: 32°F , 0°C
Humidity: 100%
Barometer: 29.96 inHg , 1014.6 hPa
Summary: Light Snow
Clouds: Mostly cloudy
Visibility: 3 miles , 5 km
Cloud details: Mostly cloudy 1500 ft
2020/01/24 19:15 KGLY 241915Z AUTO 29010G14KT 3SM -SN BKN015 00/00 A2996 RMK AO2
 
KCOU - Columbia, Missouri
Updated: Fri, Jan-Fri-2020 12:54pm
Overcast
Overcast
 Wind from WNW
Wind: WNW 13 mph , 20 km/h
Temperature: 34°F , 1°C
Wind Chill: 25°F , -4°C
Dew Point: 30°F , -1°C
Humidity: 87%
Barometer: 29.87 inHg , 1011.5 hPa
Clouds: Overcast
Visibility: 10 miles , 16 km
Cloud details: Overcast 800 ft
2020/01/24 18:54 KCOU 241854Z 30011KT 10SM OVC008 01/M01 A2987 RMK AO2 CIG 006V012 SLP120 T00111011
KJEF - Jefferson City, Missouri
Updated: Fri, Jan-Fri-2020 12:53pm
Overcast
Overcast
 Wind from WNW
Wind: WNW 9 mph , 15 km/h
Temperature: 36°F , 2°C
Wind Chill: 29°F , -2°C
Dew Point: 30°F , -1°C
Humidity: 81%
Barometer: 29.89 inHg , 1012.2 hPa
Clouds: Overcast
Visibility: 7 miles , 11 km
Cloud details: Overcast 1400 ft
2020/01/24 18:53 KJEF 241853Z 29008KT 7SM OVC014 02/M01 A2989 RMK AO2 SNB30E40 SLP117 P0002 T00171006
KVIH - Vichy/Rolla, Missouri
Updated: Fri, Jan-Fri-2020 1:19pm
Light snow, Mist, Overcast
Light snow, Mist, Overcast
 Wind from W
Wind: W 14 mph , 22 km/h, Gust: 24 mph , 39 km/h
Temperature: 34°F , 1°C
Wind Chill: 25°F , -4°C
Dew Point: 30°F , -1°C
Humidity: 87%
Barometer: 29.86 inHg , 1011.2 hPa
Summary: Light snow, Mist
Clouds: Overcast
Visibility: 3 miles , 5 km
Cloud details: Mostly cloudy 700 ft
Overcast 1500 ft
2020/01/24 19:19 KVIH 241919Z AUTO 28012G21KT 3SM -SN BR BKN007 OVC015 01/M01 A2986 RMK AO2 CIG 004V012 P0000 T00061011
 
KTBN - Fort Leonard Wood, Missouri
Updated: Fri, Jan-Fri-2020 11:56am
NOT Current
Light rain, Overcast
Light rain, Overcast
 Wind from W
Wind: W 12 mph , 19 km/h
Temperature: 34°F , 1°C
Wind Chill: 25°F , -4°C
Dew Point: 32°F , 0°C
Humidity: 93%
Barometer: 29.88 inHg , 1011.9 hPa
Summary: Light rain
Clouds: Overcast
Visibility: 10 miles , 16 km
Cloud details: Overcast 1000 ft
2020/01/24 17:56 KTBN 241756Z AUTO 27010KT 10SM -RA OVC010 01/00 A2988 RMK AO2 CIG 009V011 OVC V BKN CIG 008 RWY33 SLP130 P0000 60003 T00120000 10015 21001 50008 $
KJLN - Joplin, Missouri
Updated: Fri, Jan-Fri-2020 12:53pm
Overcast
Overcast
 Wind from WNW
Wind: WNW 16 mph , 26 km/h, Gust: 24 mph , 39 km/h
Temperature: 34°F , 1°C
Wind Chill: 24°F , -4°C
Dew Point: 28°F , -2°C
Humidity: 81%
Barometer: 30.03 inHg , 1016.9 hPa
Clouds: Overcast
Visibility: 7 miles , 11 km
Cloud details: Overcast 1200 ft
2020/01/24 18:53 KJLN 241853Z 29014G21KT 7SM OVC012 01/M02 A3003 RMK AO2 SLP175 T00061017
KHFJ - Monett, Missouri
Updated: Fri, Jan-Fri-2020 1:15pm
Overcast
Overcast
 Wind from W
Wind: W 14 mph , 22 km/h
Temperature: 32°F , 0°C
Wind Chill: 22°F , -6°C
Dew Point: 32°F , 0°C
Humidity: 100%
Barometer: 30.00 inHg , 1015.9 hPa
Clouds: Overcast
Visibility: 7 miles , 11 km
Cloud details: Overcast 700 ft
2020/01/24 19:15 KHFJ 241915Z AUTO 28012KT 7SM OVC007 00/00 A3000 RMK AO2
 
KSGF - Springfield, Missouri
Updated: Fri, Jan-Fri-2020 1:03pm
Light snow, Mist, Overcast
Light snow, Mist, Overcast
 Wind from WNW
Wind: WNW 16 mph , 26 km/h, Gust: 25 mph , 41 km/h
Temperature: 32°F , 0°C
Wind Chill: 21°F , -6°C
Dew Point: 30°F , -1°C
Humidity: 93%
Barometer: 29.95 inHg , 1014.2 hPa
Summary: Light snow, Mist
Clouds: Overcast
Visibility: 3 miles , 5 km
Cloud details: Overcast 800 ft
2020/01/24 19:03 KSGF 241903Z 29014G22KT 3SM -SN BR OVC008 00/M01 A2995 RMK AO2 CIG 006V011 P0000 T00001011
KBBG - Branson, Missouri
Updated: Fri, Jan-Fri-2020 12:46pm
Mist, Overcast
Mist, Overcast
 Wind from W
Wind: W 9 mph , 15 km/h, Gust: 18 mph , 30 km/h
Temperature: 32°F , 0°C
Wind Chill: 24°F , -4°C
Dew Point: 30°F , -1°C
Humidity: 93%
Barometer: 29.98 inHg , 1015.2 hPa
Summary: Mist
Clouds: Overcast
Visibility: 5 miles , 8 km
Cloud details: Overcast 900 ft
2020/01/24 18:46 KBBG 241846Z 28008G16KT 230V310 5SM BR OVC009 00/M01 A2998
KUNO - West Plains, Missouri
Updated: Fri, Jan-Fri-2020 1:11pm
Overcast
Overcast
 Wind from WNW
Wind: WNW 13 mph , 20 km/h, Gust: 22 mph , 35 km/h
Temperature: 36°F , 2°C
Wind Chill: 27°F , -3°C
Dew Point: 30°F , -1°C
Humidity: 81%
Barometer: 29.90 inHg , 1012.5 hPa
Clouds: Overcast
Visibility: 10 miles , 16 km
Cloud details: Few Clouds 1400 ft
Mostly cloudy 2500 ft
Overcast 3000 ft
2020/01/24 19:11 KUNO 241911Z AUTO 29011G19KT 10SM FEW014 BKN025 OVC030 02/M01 A2990 RMK AO2 UPE1855B1858E09SNB1855E1858B01E03B09E10 P0000 T00171011
 
KFAM - Farmington, Missouri
Updated: Fri, Jan-Fri-2020 1:24pm
Light rain, Overcast
Light rain, Overcast
 Wind from WNW
Wind: WNW 9 mph , 15 km/h
Temperature: 36°F , 2°C
Wind Chill: 29°F , -2°C
Dew Point: 34°F , 1°C
Humidity: 93%
Barometer: 29.84 inHg , 1010.5 hPa
Summary: Light rain
Clouds: Overcast
Visibility: 10 miles , 16 km
Cloud details: Mostly cloudy 1000 ft
Overcast 2700 ft
2020/01/24 19:24 KFAM 241924Z AUTO 29008KT 10SM -RA BKN010 OVC027 02/01 A2984 RMK AO2 CIG 007V018 P0001 FZRANO
KCGI - Cape Girardeau, Missouri
Updated: Fri, Jan-Fri-2020 1:14pm
Light rain, Overcast
Light rain, Overcast
 Wind from SW
Wind: SW 8 mph , 13 km/h
Temperature: 41°F , 5°C
Wind Chill: 36°F , 2°C
Dew Point: 37°F , 3°C
Humidity: 87%
Barometer: 29.84 inHg , 1010.5 hPa
Summary: Light rain
Clouds: Overcast
Visibility: 10 miles , 16 km
Cloud details: Partly cloudy 1100 ft
Overcast 2000 ft
2020/01/24 19:14 KCGI 241914Z 23007KT 10SM -RA SCT011 OVC020 05/03 A2984 RMK AO2 RAB12 P0000 T00500028
KSTL - St. Louis, Missouri
Updated: Fri, Jan-Fri-2020 12:51pm
Overcast
Overcast
 Wind from W
Wind: W 7 mph , 11 km/h
Temperature: 36°F , 2°C
Wind Chill: 30°F , -1°C
Dew Point: 34°F , 1°C
Humidity: 93%
Barometer: 29.83 inHg , 1010.2 hPa
Clouds: Overcast
Visibility: 9 miles , 14 km
Cloud details: Overcast 600 ft
2020/01/24 18:51 KSTL 241851Z 27006KT 9SM OVC006 02/01 A2983 RMK AO2 SLP110 T00170006
 
KPOF - Popular Bluff, Missouri
Updated: Fri, Jan-Fri-2020 1:15pm
Light rain, Overcast
Light rain, Overcast
 Wind from W
Wind: W 13 mph , 20 km/h, Gust: 22 mph , 35 km/h
Temperature: 39°F , 4°C
Wind Chill: 31°F , -1°C
Dew Point: 34°F , 1°C
Humidity: 81%
Barometer: 29.88 inHg , 1011.9 hPa
Summary: Light rain
Clouds: Overcast
Visibility: 10 miles , 16 km
Cloud details: Partly cloudy 1600 ft
Mostly cloudy 4000 ft
Overcast 4800 ft
2020/01/24 19:15 KPOF 241915Z AUTO 28011G19KT 10SM -RA SCT016 BKN040 OVC048 04/01 A2988 RMK AO2 P0000 T00440011
KSET - St. Charles, Missouri
Updated: Fri, Jan-Fri-2020 12:54pm
Overcast
Overcast
 Wind from W
Wind: W 6 mph , 9 km/h
Temperature: 36°F , 2°C
Wind Chill: 31°F , -1°C
Dew Point: 34°F , 1°C
Humidity: 93%
Barometer: 29.83 inHg , 1010.2 hPa
Clouds: Overcast
Visibility: 9 miles , 14 km
Cloud details: Overcast 600 ft
2020/01/24 18:54 KSET 241854Z AUTO 27005KT 9SM OVC006 02/01 A2983 RMK AO2 SLP104 T00170006
KGLD - Goodland, Kansas
Updated: Fri, Jan-Fri-2020 12:53pm
Overcast
Overcast
 
Temperature: 46°F , 8°C
Dew Point: 19°F , -7°C
Humidity: 34%
Barometer: 30.01 inHg , 1016.3 hPa
Clouds: Overcast
Cloud details: Overcast 6500 ft
2020/01/24 18:53 KGLD 241853Z AUTO OVC065 08/M07 A3001 RMK AO2 SLP178 T00831072 PNO $
 
KHLC - Hill City, Kansas
Updated: Fri, Jan-Fri-2020 12:53pm
Clear
Clear
 Wind from varies
Wind: varies 7 mph , 11 km/h
Temperature: 39°F , 4°C
Wind Chill: 34°F , 1°C
Dew Point: 28°F , -2°C
Humidity: 65%
Barometer: 30.07 inHg , 1018.3 hPa
Clouds: Clear
Visibility: 10 miles , 16 km
2020/01/24 18:53 KHLC 241853Z AUTO VRB06KT 10SM CLR 04/M02 A3007 RMK AO2 SLP197 T00441022
KHYS - Hays Muni, Kansas
Updated: Fri, Jan-Fri-2020 12:56pm
Clear
Clear
 Wind from NNW
Wind: NNW 12 mph , 19 km/h
Temperature: 37°F , 3°C
Wind Chill: 29°F , -2°C
Dew Point: 27°F , -3°C
Humidity: 65%
Barometer: 30.08 inHg , 1018.6 hPa
Clouds: Clear
Visibility: 10 miles , 16 km
2020/01/24 18:56 KHYS 241856Z AUTO 33010KT 10SM CLR 03/M03 A3008 RMK AO2 SLP200 T00331028
KRSL - Russell, Kansas
Updated: Fri, Jan-Fri-2020 12:53pm
Overcast
Overcast
 Wind from NW
Wind: NW 10 mph , 17 km/h
Temperature: 34°F , 1°C
Wind Chill: 26°F , -3°C
Dew Point: 27°F , -3°C
Humidity: 75%
Barometer: 30.08 inHg , 1018.6 hPa
Clouds: Overcast
Visibility: 10 miles , 16 km
Cloud details: Overcast 1600 ft
2020/01/24 18:53 KRSL 241853Z AUTO 31009KT 10SM OVC016 01/M03 A3008 RMK AO2 SLP203 T00061028
 
KGBD - Great Bend, Kansas
Updated: Fri, Jan-Fri-2020 12:56pm
Clear
Clear
 Wind from NNW
Wind: NNW 8 mph , 13 km/h
Temperature: 37°F , 3°C
Wind Chill: 31°F , -1°C
Dew Point: 28°F , -2°C
Humidity: 70%
Barometer: 30.10 inHg , 1019.3 hPa
Clouds: Clear
Visibility: 10 miles , 16 km
2020/01/24 18:56 KGBD 241856Z AUTO 33007KT 10SM CLR 03/M02 A3010 RMK AO2 SLP205 T00331022
KDDC - Dodge City, Kansas
Updated: Fri, Jan-Fri-2020 12:52pm
Clear
Clear
 Wind from varies
Wind: varies 5 mph , 7 km/h
Temperature: 45°F , 7°C
Wind Chill: 42°F , 6°C
Dew Point: 28°F , -2°C
Humidity: 53%
Barometer: 30.06 inHg , 1017.9 hPa
Clouds: Clear
Visibility: 10 miles , 16 km
2020/01/24 18:52 KDDC 241852Z AUTO VRB04KT 10SM CLR 07/M02 A3006 RMK AO2 SLP192 T00721022
KPTT - Pratt Indust, Kansas
Updated: Fri, Jan-Fri-2020 1:15pm
Clear
Clear
 Wind from NW
Wind: NW 10 mph , 17 km/h
Temperature: 45°F , 7°C
Wind Chill: 40°F , 4°C
Dew Point: 27°F , -3°C
Humidity: 49%
Barometer: 30.07 inHg , 1018.3 hPa
Clouds: Clear
Visibility: 10 miles , 16 km
2020/01/24 19:15 KPTT 241915Z AUTO 32009KT 10SM CLR 07/M03 A3007 RMK AO2 T00651026
 
KSLN - Salina, Kansas
Updated: Fri, Jan-Fri-2020 12:53pm
Overcast
Overcast
 Wind from NNW
Wind: NNW 15 mph , 24 km/h
Temperature: 34°F , 1°C
Wind Chill: 24°F , -4°C
Dew Point: 28°F , -2°C
Humidity: 81%
Barometer: 30.10 inHg , 1019.3 hPa
Clouds: Overcast
Visibility: 10 miles , 16 km
Cloud details: Mostly cloudy 1500 ft
Overcast 7000 ft
2020/01/24 18:53 KSLN 241853Z 34013KT 10SM BKN015 OVC070 01/M02 A3010 RMK AO2 SLP204 T00111022
KHUT - Hutchinson, Kansas
Updated: Fri, Jan-Fri-2020 12:52pm
Overcast
Overcast
 Wind from NW
Wind: NW 15 mph , 24 km/h
Temperature: 36°F , 2°C
Wind Chill: 27°F , -3°C
Dew Point: 27°F , -3°C
Humidity: 70%
Barometer: 30.09 inHg , 1019 hPa
Clouds: Overcast
Visibility: 10 miles , 16 km
Cloud details: Overcast 1900 ft
2020/01/24 18:52 KHUT 241852Z 31013KT 10SM OVC019 02/M03 A3009 RMK AO2 SLP193 T00221028
KGCK - Garden City, Kansas
Updated: Fri, Jan-Fri-2020 12:54pm
Partly cloudy
Partly cloudy
 Wind from varies
Wind: varies 6 mph , 9 km/h
Temperature: 45°F , 7°C
Wind Chill: 42°F , 6°C
Dew Point: 23°F , -5°C
Humidity: 42%
Barometer: 30.04 inHg , 1017.3 hPa
Clouds: Partly cloudy
Visibility: 10 miles , 16 km
Cloud details: Partly cloudy 6500 ft
2020/01/24 18:54 KGCK 241854Z VRB05KT 10SM SCT065 07/M05 A3004 RMK AO2 SLP190 T00721050
 
KP28 - Medicine Lodge, Kansas
Updated: Fri, Jan-Fri-2020 12:56pm

 Wind from NNW
Wind: NNW 10 mph , 17 km/h, Gust: 20 mph , 31 km/h
Temperature: 46°F , 8°C
Wind Chill: 41°F , 5°C
Dew Point: 28°F , -2°C
Humidity: 50%
Barometer: 30.08 inHg , 1018.6 hPa
2020/01/24 18:56 KP28 241856Z AUTO 33009G17KT 08/M02 A3008 RMK AO1 SLP191 T00831017
KICT - Wichita, Kansas
Updated: Fri, Jan-Fri-2020 12:53pm
Overcast
Overcast
 Wind from NW
Wind: NW 17 mph , 28 km/h, Gust: 23 mph , 37 km/h
Temperature: 36°F , 2°C
Wind Chill: 26°F , -3°C
Dew Point: 27°F , -3°C
Humidity: 70%
Barometer: 30.09 inHg , 1019 hPa
Clouds: Overcast
Visibility: 10 miles , 16 km
Cloud details: Overcast 2000 ft
2020/01/24 18:53 KICT 241853Z 32015G20KT 10SM OVC020 02/M03 A3009 RMK AO2 SLP200 T00221028
KRSL - Russell, Kansas
Updated: Fri, Jan-Fri-2020 12:53pm
Overcast
Overcast
 Wind from NW
Wind: NW 10 mph , 17 km/h
Temperature: 34°F , 1°C
Wind Chill: 26°F , -3°C
Dew Point: 27°F , -3°C
Humidity: 75%
Barometer: 30.08 inHg , 1018.6 hPa
Clouds: Overcast
Visibility: 10 miles , 16 km
Cloud details: Overcast 1600 ft
2020/01/24 18:53 KRSL 241853Z AUTO 31009KT 10SM OVC016 01/M03 A3008 RMK AO2 SLP203 T00061028
 
KMHK - Manhattan, Kansas
Updated: Fri, Jan-Fri-2020 1:22pm
Overcast
Overcast
 Wind from WNW
Wind: WNW 6 mph , 9 km/h, Gust: 18 mph , 30 km/h
Temperature: 34°F , 1°C
Wind Chill: 29°F , -2°C
Dew Point: 27°F , -3°C
Humidity: 75%
Barometer: 30.08 inHg , 1018.6 hPa
Clouds: Overcast
Visibility: 10 miles , 16 km
Cloud details: Overcast 1400 ft
2020/01/24 19:22 KMHK 241922Z 30005G16KT 10SM OVC014 01/M03 A3008 RMK AO2 T00061028
KEMP - Emporia, Kansas
Updated: Fri, Jan-Fri-2020 1:00pm
Mist, Overcast
Mist, Overcast
 Wind from NW
Wind: NW 14 mph , 22 km/h, Gust: 20 mph , 31 km/h
Temperature: 32°F , 0°C
Wind Chill: 22°F , -6°C
Dew Point: 28°F , -2°C
Humidity: 87%
Barometer: 30.06 inHg , 1017.9 hPa
Summary: Mist
Clouds: Overcast
Visibility: 6 miles , 10 km
Cloud details: Overcast 1600 ft
2020/01/24 19:00 KEMP 241900Z AUTO 32012G17KT 6SM BR OVC016 00/M02 A3006 RMK AO2 T00001017
KTOP - Topeka, Kansas
Updated: Fri, Jan-Fri-2020 12:53pm
Haze, Overcast
Haze, Overcast
 Wind from WNW
Wind: WNW 13 mph , 20 km/h
Temperature: 34°F , 1°C
Wind Chill: 25°F , -4°C
Dew Point: 27°F , -3°C
Humidity: 75%
Barometer: 30.04 inHg , 1017.3 hPa
Summary: Haze
Clouds: Overcast
Visibility: 6 miles , 10 km
Cloud details: Overcast 1200 ft
2020/01/24 18:53 KTOP 241853Z 30011KT 6SM HZ OVC012 01/M03 A3004 RMK AO2 SLP180 T00061028
 
KCNU - Chanute, Kansas
Updated: Fri, Jan-Fri-2020 1:23pm
Overcast
Overcast
 Wind from NW
Wind: NW 14 mph , 22 km/h, Gust: 25 mph , 41 km/h
Temperature: 36°F , 2°C
Wind Chill: 27°F , -3°C
Dew Point: 28°F , -2°C
Humidity: 75%
Barometer: 30.06 inHg , 1017.9 hPa
Clouds: Overcast
Visibility: 10 miles , 16 km
Cloud details: Overcast 1500 ft
2020/01/24 19:23 KCNU 241923Z AUTO 31012G22KT 10SM OVC015 02/M02 A3006 RMK AO2 T00171017
KLWC - Lawrence, Kansas
Updated: Fri, Jan-Fri-2020 1:21pm
Mist, Overcast
Mist, Overcast
 Wind from NW
Wind: NW 16 mph , 26 km/h
Temperature: 32°F , 0°C
Wind Chill: 21°F , -6°C
Dew Point: 28°F , -2°C
Humidity: 87%
Barometer: 30.02 inHg , 1016.6 hPa
Summary: Mist
Clouds: Overcast
Visibility: 3 miles , 5 km
Cloud details: Overcast 900 ft
2020/01/24 19:21 KLWC 241921Z AUTO 31014KT 3SM BR OVC009 00/M02 A3002 RMK AO2 T00001017
KPPF - Parsons, Kansas
Updated: Fri, Jan-Fri-2020 12:52pm
Overcast
Overcast
 Wind from NW
Wind: NW 14 mph , 22 km/h, Gust: 24 mph , 39 km/h
Temperature: 36°F , 2°C
Wind Chill: 27°F , -3°C
Dew Point: 30°F , -1°C
Humidity: 81%
Barometer: 30.07 inHg , 1018.3 hPa
Clouds: Overcast
Visibility: 10 miles , 16 km
Cloud details: Overcast 1900 ft
2020/01/24 18:52 KPPF 241852Z AUTO 31012G21KT 10SM OVC019 02/M01 A3007 RMK AO2 SLP189 T00221011
 
KIDP - Independence, Kansas
Updated: Fri, Jan-Fri-2020 1:10pm
Overcast
Overcast
 Wind from NW
Wind: NW 14 mph , 22 km/h
Temperature: 36°F , 2°C
Wind Chill: 27°F , -3°C
Dew Point: 30°F , -1°C
Humidity: 81%
Barometer: 30.09 inHg , 1019 hPa
Clouds: Overcast
Visibility: 10 miles , 16 km
Cloud details: Overcast 1800 ft
2020/01/24 19:10 KIDP 241910Z AUTO 32012KT 10SM OVC018 02/M01 A3009 RMK AO2 T00221009
KOJC - Olathe, Kansas
Updated: Fri, Jan-Fri-2020 1:16pm
Mist, Overcast
Mist, Overcast
 Wind from NW
Wind: NW 15 mph , 24 km/h, Gust: 25 mph , 41 km/h
Temperature: 30°F , -1°C
Wind Chill: 19°F , -7°C
Dew Point: 28°F , -2°C
Humidity: 93%
Barometer: 29.98 inHg , 1015.2 hPa
Summary: Mist
Clouds: Overcast
Visibility: 3 miles , 5 km
Cloud details: Overcast 600 ft
2020/01/24 19:16 KOJC 241916Z 32013G22KT 3SM BR OVC006 M01/M02 A2998 RMK AO2 T10111017
KCFV - Coffeyville, Kansas
Updated: Fri, Jan-Fri-2020 12:52pm
Overcast
Overcast
 Wind from NW
Wind: NW 14 mph , 22 km/h
Temperature: 37°F , 3°C
Wind Chill: 28°F , -2°C
Dew Point: 28°F , -2°C
Humidity: 70%
Barometer: 30.08 inHg , 1018.6 hPa
Clouds: Overcast
Visibility: 10 miles , 16 km
Cloud details: Overcast 2000 ft
2020/01/24 18:52 KCFV 241852Z AUTO 32012KT 10SM OVC020 03/M02 A3008 RMK AO2 SLP190 T00281017
 
KPTS - Pittsburg, Kansas
Updated: Fri, Jan-Fri-2020 1:15pm
Overcast
Overcast
 Wind from WNW
Wind: WNW 8 mph , 13 km/h
Temperature: 34°F , 1°C
Wind Chill: 27°F , -3°C
Dew Point: 30°F , -1°C
Humidity: 87%
Barometer: 30.02 inHg , 1016.6 hPa
Clouds: Overcast
Visibility: 10 miles , 16 km
Cloud details: Overcast 1300 ft
2020/01/24 19:15 KPTS 241915Z AUTO 30007KT 10SM OVC013 01/M01 A3002 RMK AO2 T00051011
KLGA - New York City, New York
Updated: Fri, Jan-Fri-2020 12:51pm
Mostly cloudy
Mostly cloudy
 Wind from NE
Wind: NE 12 mph , 19 km/h
Temperature: 45°F , 7°C
Wind Chill: 39°F , 4°C
Dew Point: 25°F , -4°C
Humidity: 46%
Barometer: 30.31 inHg , 1026.4 hPa
Clouds: Mostly cloudy
Visibility: 10 miles , 16 km
Cloud details: Mostly cloudy 25000 ft
2020/01/24 18:51 KLGA 241851Z 05010KT 10SM BKN250 07/M04 A3031 RMK AO2 SLP265 T00721039 $
KCLT - Charlotte, North Carolina
Updated: Fri, Jan-Fri-2020 1:18pm
Rain, Overcast
Rain, Overcast
 Wind from SE
Wind: SE 13 mph , 20 km/h
Temperature: 57°F , 14°C
Dew Point: 52°F , 11°C
Humidity: 82%
Barometer: 29.94 inHg , 1013.9 hPa
Summary: Rain
Clouds: Overcast
Visibility: 2 1/2 miles , 4 km
Cloud details: Mostly cloudy 1200 ft
Mostly cloudy 1900 ft
Overcast 5500 ft
2020/01/24 19:18 KCLT 241918Z 14011KT 2 1/2SM RA BKN012 BKN019 OVC055 14/11 A2994 RMK AO2 RAB03 P0000 T01390111
 
KATL - Atlanta, Georgia
Updated: Fri, Jan-Fri-2020 12:52pm
Light drizzle, Mist, Overcast
Light drizzle, Mist, Overcast
 Wind from WSW
Wind: WSW 5 mph , 7 km/h
Temperature: 52°F , 11°C
Dew Point: 50°F , 10°C
Humidity: 94%
Barometer: 29.94 inHg , 1013.9 hPa
Summary: Light drizzle, Mist
Clouds: Overcast
Visibility: 1 mile , 2 km
Cloud details: Overcast 300 ft
2020/01/24 18:52 KATL 241852Z 25004KT 1SM R09R/P6000FT -DZ BR OVC003 11/10 A2994 RMK AO2 SFC VIS 3 SLP141 TWRINC P0000 T01110100
KORL - Orlando, Florida
Updated: Fri, Jan-Fri-2020 12:53pm
Few Clouds
Few Clouds
 Wind from S
Wind: S 12 mph , 19 km/h
Temperature: 75°F , 24°C
Dew Point: 61°F , 16°C
Humidity: 61%
Barometer: 30.01 inHg , 1016.3 hPa
Clouds: Few Clouds
Visibility: 10 miles , 16 km
Cloud details: Few Clouds 3300 ft
2020/01/24 18:53 KORL 241853Z 19010KT 10SM FEW033 24/16 A3001 RMK AO2 SLP165 T02390156
KMSP - Minneapolis, Minnesota
Updated: Fri, Jan-Fri-2020 12:53pm
Overcast
Overcast
 Wind from N
Wind: N 8 mph , 13 km/h
Temperature: 32°F , 0°C
Wind Chill: 25°F , -4°C
Dew Point: 27°F , -3°C
Humidity: 80%
Barometer: 29.99 inHg , 1015.6 hPa
Clouds: Overcast
Visibility: 10 miles , 16 km
Cloud details: Overcast 1000 ft
2020/01/24 18:53 KMSP 241853Z 36007KT 10SM OVC010 00/M03 A2999 RMK AO2 SLP165 T00001028
 
KORD - Chicago, Illinois
Updated: Fri, Jan-Fri-2020 12:51pm
Mist, Overcast
Mist, Overcast
 Wind from calm
Wind: Calm
Temperature: 37°F , 3°C
Dew Point: 37°F , 3°C
Humidity: 100%
Barometer: 29.80 inHg , 1009.1 hPa
Summary: Mist
Clouds: Overcast
Visibility: 3/4 mile , 1.2 km
Cloud details: Overcast 300 ft
2020/01/24 18:51 KORD 241851Z 00000KT 3/4SM R10L/4500VP6000FT BR OVC003 03/03 A2980 RMK AO2 DZE06 SLP096 P0000 T00280028
KDFW - Dallas/Ft Worth, Texas
Updated: Fri, Jan-Fri-2020 12:53pm
Few Clouds
Few Clouds
 Wind from NW
Wind: NW 8 mph , 13 km/h
Temperature: 54°F , 12°C
Dew Point: 34°F , 1°C
Humidity: 47%
Barometer: 30.14 inHg , 1020.7 hPa
Clouds: Few Clouds
Visibility: 10 miles , 16 km
Cloud details: Few Clouds 30000 ft
2020/01/24 18:53 KDFW 241853Z 32007KT 10SM FEW300 12/01 A3014 RMK AO2 SLP206 T01170011
KHOU - Houston, Texas
Updated: Fri, Jan-Fri-2020 12:53pm
Few Clouds
Few Clouds
 Wind from varies
Wind: varies 3 mph , 6 km/h
Temperature: 64°F , 18°C
Dew Point: 37°F , 3°C
Humidity: 37%
Barometer: 30.16 inHg , 1021.3 hPa
Clouds: Few Clouds
Visibility: 10 miles , 16 km
Cloud details: Few Clouds 25000 ft
2020/01/24 18:53 KHOU 241853Z VRB03KT 10SM FEW250 18/03 A3016 RMK AO2 SLP217 T01780033
 
KDEN - Denver, Colorado
Updated: Fri, Jan-Fri-2020 12:53pm
Mostly cloudy
Mostly cloudy
 Wind from calm
Wind: Calm
Temperature: 52°F , 11°C
Dew Point: 16°F , -9°C
Humidity: 24%
Barometer: 29.97 inHg , 1014.9 hPa
Clouds: Mostly cloudy
Visibility: 10 miles , 16 km
Cloud details: Few Clouds 8000 ft
Few Clouds 15000 ft
Mostly cloudy 22000 ft
2020/01/24 18:53 KDEN 241853Z 00000KT 10SM FEW080 FEW150 BKN220 11/M09 A2997 RMK AO2 SLP137 T01111089
KSFO - San Francisco, California
Updated: Fri, Jan-Fri-2020 12:56pm
Mostly cloudy
Mostly cloudy
 Wind from calm
Wind: Calm
Temperature: 55°F , 13°C
Dew Point: 50°F , 10°C
Humidity: 82%
Barometer: 30.20 inHg , 1022.7 hPa
Clouds: Mostly cloudy
Visibility: 10 miles , 16 km
Cloud details: Few Clouds 200 ft
Partly cloudy 1000 ft
Mostly cloudy 20000 ft
2020/01/24 18:56 KSFO 241856Z 00000KT 10SM FEW002 SCT010 BKN200 13/10 A3020 RMK AO2 SLP227 T01280100
KLAX - Los Angeles, California
Updated: Fri, Jan-Fri-2020 12:53pm
Partly cloudy
Partly cloudy
 Wind from SSE
Wind: SSE 3 mph , 6 km/h
Temperature: 70°F , 21°C
Dew Point: 45°F , 7°C
Humidity: 40%
Barometer: 30.03 inHg , 1016.9 hPa
Clouds: Partly cloudy
Visibility: 10 miles , 16 km
Cloud details: Few Clouds 12000 ft
Few Clouds 15000 ft
Partly cloudy 22000 ft
2020/01/24 18:53 KLAX 241853Z 16003KT 10SM FEW120 FEW150 SCT220 21/07 A3003 RMK AO2 SLP167 T02060067